Archival Weather

South Haven Area Rgnl

South Haven, Michigan (KLWA)

Report from: Thursday, September 21, 2023 6:15 AM EDT
Current time: Sunday, July 14, 2024 6:10 AM EDT

Current weather – Weather history – Daily summaries
Weather forecast

Temperature16.6°C (61.9°F)
Dew point14.2°C (57.6°F)
Winds Calm
Visibility10 mi. (16.1 km)
Clouds Sky clear
Altimeter30.18 in.Hg (1022 mB)
Relative humidity86 %
Density altitude118 ft. (36 m)
Remarks Fully automated report
Automated weather observing station with precipitation discriminator
Flight conditions Visual Meteorological Conditions
Raw dataKLWA 211015Z AUTO 00000KT 10SM CLR 17/14 A3018 RMK AO2 T01660142
An error has occurred. This application may no longer respond until reloaded. Reload 🗙